Time;durP1;ratioP1;P1;durP2;ratioP2;P2;SDS_P1;SDS_P2;PMS_P1;PMS_P2;Temp;Humidity;BMP_temperature;BMP_pressure;BME280_temperature;BME280_humidity;BME280_pressure;Samples;Min_cycle;Max_cycle;Signal;HPM_P1;HPM_P2
2022/03/21 00:01:51;;;;;;;0.88;0.88;;;-3.70;99.90;;;;;;5055433;28;20292;-81
2022/03/21 00:04:17;;;;;;;0.80;0.80;;;-3.80;99.90;;;;;;5052266;28;20268;-80
2022/03/21 00:06:43;;;;;;;0.70;0.70;;;-3.80;99.90;;;;;;5065365;28;20707;-81
2022/03/21 00:09:09;;;;;;;0.80;0.80;;;-3.80;99.90;;;;;;5053236;28;20196;-81
2022/03/21 00:11:34;;;;;;;0.88;0.88;;;-3.80;99.90;;;;;;5068034;28;20205;-81
2022/03/21 00:14:00;;;;;;;0.80;0.80;;;-3.80;99.90;;;;;;5053587;28;20189;-80
2022/03/21 00:16:26;;;;;;;17.00;1.85;;;-3.80;99.90;;;;;;5068471;28;20198;-80
2022/03/21 00:18:52;;;;;;;0.90;0.90;;;-3.80;99.90;;;;;;5068501;28;20563;-80
2022/03/21 00:21:19;;;;;;;0.80;0.80;;;-3.80;99.90;;;;;;5060167;28;20283;-81
2022/03/21 00:23:45;;;;;;;0.80;0.80;;;-3.80;99.90;;;;;;5071719;28;20221;-81
2022/03/21 00:26:10;;;;;;;0.80;0.80;;;-3.80;99.90;;;;;;5071900;28;20192;-81
2022/03/21 00:28:36;;;;;;;0.88;0.88;;;-3.90;99.90;;;;;;5071387;28;20287;-81
2022/03/21 00:31:02;;;;;;;0.80;0.80;;;-3.90;99.90;;;;;;5071658;28;20205;-80
2022/03/21 00:33:28;;;;;;;0.80;0.80;;;-3.90;99.90;;;;;;5071750;28;20201;-81
2022/03/21 00:35:54;;;;;;;0.80;0.80;;;-3.90;99.90;;;;;;5072943;28;20197;-81
2022/03/21 00:38:20;;;;;;;0.80;0.80;;;-4.00;99.90;;;;;;5071603;28;20204;-81
2022/03/21 00:40:47;;;;;;;1.05;1.05;;;-4.00;99.90;;;;;;5071728;28;20193;-81
2022/03/21 00:43:17;;;;;;;0.88;0.88;;;-4.00;99.90;;;;;;5072483;28;20656;-80
2022/03/21 00:45:43;;;;;;;0.80;0.80;;;-4.00;99.90;;;;;;5070668;28;20223;-81
2022/03/21 00:48:09;;;;;;;0.70;0.70;;;-3.90;99.90;;;;;;5071577;28;20677;-80
2022/03/21 00:50:35;;;;;;;0.85;0.85;;;-3.90;99.90;;;;;;5071468;28;20308;-80
2022/03/21 00:53:01;;;;;;;0.65;0.65;;;-3.80;99.90;;;;;;5071610;28;20398;-81
2022/03/21 00:55:28;;;;;;;0.73;0.73;;;-3.90;99.90;;;;;;5071452;28;20322;-81
2022/03/21 00:57:55;;;;;;;0.73;0.73;;;-3.90;99.90;;;;;;5071716;28;20197;-80
2022/03/21 01:00:24;;;;;;;0.80;0.80;;;-3.90;99.90;;;;;;5071534;28;20288;-80
2022/03/21 01:02:51;;;;;;;0.80;0.80;;;-4.00;99.90;;;;;;5071609;28;20204;-81
2022/03/21 01:05:17;;;;;;;0.80;0.80;;;-3.90;99.90;;;;;;5067909;28;20227;-82
2022/03/21 01:07:43;;;;;;;0.80;0.80;;;-3.90;99.90;;;;;;5052878;28;20273;-81
2022/03/21 01:10:15;;;;;;;0.80;0.80;;;-3.90;99.90;;;;;;5054839;28;20204;-80
2022/03/21 01:12:42;;;;;;;0.80;0.80;;;-3.80;99.90;;;;;;5072548;28;20220;-81
2022/03/21 01:15:09;;;;;;;0.70;0.70;;;-3.70;99.90;;;;;;5058768;28;20197;-81
2022/03/21 01:17:35;;;;;;;0.75;0.75;;;-3.70;99.90;;;;;;5081243;28;20204;-81
2022/03/21 01:20:02;;;;;;;0.73;0.73;;;-3.70;99.90;;;;;;5096181;28;20201;-81
2022/03/21 01:22:27;;;;;;;0.80;0.80;;;-3.70;99.90;;;;;;5077527;28;20723;-81
2022/03/21 01:24:53;;;;;;;0.80;0.80;;;-3.70;99.90;;;;;;5074943;28;20197;-81
2022/03/21 01:27:19;;;;;;;0.80;0.80;;;-3.70;99.90;;;;;;5076264;28;20212;-82
2022/03/21 01:29:44;;;;;;;0.80;0.80;;;-3.70;99.90;;;;;;5074638;28;20193;-81
2022/03/21 01:32:10;;;;;;;0.80;0.80;;;-3.80;99.90;;;;;;5075806;28;20196;-81
2022/03/21 01:34:36;;;;;;;0.80;0.80;;;-3.80;99.90;;;;;;5074505;28;20193;-82
2022/03/21 01:37:02;;;;;;;10.55;1.55;;;-3.80;99.90;;;;;;5074323;28;20357;-81
2022/03/21 01:39:27;;;;;;;0.80;0.80;;;-3.80;99.90;;;;;;5074313;28;20339;-81
2022/03/21 01:41:53;;;;;;;0.70;0.70;;;-3.80;99.90;;;;;;5074345;28;20192;-81
2022/03/21 01:44:20;;;;;;;0.80;0.80;;;-3.90;99.90;;;;;;5074081;28;20299;-81
2022/03/21 01:46:46;;;;;;;0.88;0.88;;;-4.00;99.90;;;;;;5075812;28;20192;-81
2022/03/21 01:49:11;;;;;;;0.90;0.90;;;-4.00;99.90;;;;;;5091187;28;20189;-81
2022/03/21 01:51:40;;;;;;;0.80;0.80;;;-4.10;99.90;;;;;;5091092;28;20239;-81
2022/03/21 01:56:50;;;;;;;0.80;0.80;;;-4.10;99.90;;;;;;5075813;28;20261;-81
2022/03/21 01:59:19;;;;;;;1.15;1.15;;;-4.00;99.90;;;;;;5090505;28;20212;-82
2022/03/21 02:01:45;;;;;;;0.90;0.90;;;-4.00;99.90;;;;;;5075225;28;20199;-81
2022/03/21 02:04:11;;;;;;;0.90;0.90;;;-4.00;99.90;;;;;;5075348;28;20208;-81
2022/03/21 02:06:37;;;;;;;0.80;0.80;;;-4.00;99.90;;;;;;5091163;28;20228;-81
2022/03/21 02:09:09;;;;;;;0.80;0.80;;;-4.00;99.90;;;;;;5095439;28;20243;-81
2022/03/21 02:11:36;;;;;;;0.80;0.80;;;-4.10;99.90;;;;;;5095434;28;20187;-81
2022/03/21 02:14:05;;;;;;;0.80;0.80;;;-4.20;99.90;;;;;;5077376;28;20212;-81
2022/03/21 02:16:33;;;;;;;0.90;0.90;;;-4.20;99.90;;;;;;5077018;28;20299;-81
2022/03/21 02:19:01;;;;;;;0.80;0.80;;;-4.30;99.90;;;;;;5076051;28;20667;-81
2022/03/21 02:21:51;;;;;;;0.80;0.80;;;-4.20;99.90;;;;;;5095332;28;20560;-81
2022/03/21 02:24:49;;;;;;;0.80;0.80;;;-4.30;99.90;;;;;;5095072;28;20208;-81
2022/03/21 02:27:16;;;;;;;0.90;0.90;;;-4.30;99.90;;;;;;5077035;28;20199;-81
2022/03/21 02:29:44;;;;;;;0.90;0.90;;;-4.30;99.90;;;;;;5077118;28;20308;-81
2022/03/21 02:32:10;;;;;;;0.70;0.70;;;-4.20;99.90;;;;;;5077239;28;20196;-81
2022/03/21 02:34:38;;;;;;;0.75;0.75;;;-4.10;99.90;;;;;;5076632;28;20623;-81
2022/03/21 02:37:06;;;;;;;0.70;0.70;;;-4.20;99.90;;;;;;5076398;28;20287;-81
2022/03/21 02:39:34;;;;;;;0.90;0.90;;;-4.20;99.90;;;;;;5076224;28;20199;-81
2022/03/21 02:42:01;;;;;;;0.80;0.80;;;-4.20;99.90;;;;;;5076640;28;20204;-81
2022/03/21 02:44:39;;;;;;;0.85;0.85;;;-4.20;99.90;;;;;;5076006;28;20211;-81
2022/03/21 02:47:06;;;;;;;0.77;0.77;;;-4.30;99.90;;;;;;5094862;28;20199;-81
2022/03/21 02:49:33;;;;;;;0.80;0.80;;;-4.30;99.90;;;;;;5076136;28;20568;-81
2022/03/21 02:52:02;;;;;;;0.80;0.80;;;-4.30;99.90;;;;;;5076231;28;20203;-81
2022/03/21 02:54:28;;;;;;;0.88;0.88;;;-4.40;99.90;;;;;;5075819;28;20204;-81
2022/03/21 02:56:55;;;;;;;0.67;0.67;;;-4.40;99.90;;;;;;5076219;28;20543;-81
2022/03/21 02:59:20;;;;;;;0.80;0.80;;;-4.40;99.90;;;;;;5076213;28;20595;-81
2022/03/21 03:01:46;;;;;;;0.73;0.73;;;-4.40;99.90;;;;;;5074447;28;20200;-81
2022/03/21 03:04:12;;;;;;;0.70;0.70;;;-4.50;99.90;;;;;;5072363;28;20204;-81
2022/03/21 03:06:41;;;;;;;0.80;0.80;;;-4.50;99.90;;;;;;5073693;28;20605;-81
2022/03/21 03:09:07;;;;;;;0.80;0.80;;;-4.50;99.90;;;;;;5072618;28;20224;-81
2022/03/21 03:11:36;;;;;;;0.75;0.75;;;-4.50;99.90;;;;;;5076249;28;20675;-81
2022/03/21 03:14:06;;;;;;;0.80;0.80;;;-4.50;99.90;;;;;;5075959;28;20196;-80
2022/03/21 03:16:32;;;;;;;0.80;0.80;;;-4.50;99.90;;;;;;5093763;28;20202;-80
2022/03/21 03:18:58;;;;;;;0.80;0.80;;;-4.50;99.90;;;;;;5076102;28;20745;-80
2022/03/21 03:21:26;;;;;;;0.77;0.77;;;-4.50;99.90;;;;;;5075865;28;20192;-81
2022/03/21 03:23:52;;;;;;;0.95;0.95;;;-4.40;99.90;;;;;;5075738;28;20586;-80
2022/03/21 03:26:19;;;;;;;0.80;0.80;;;-4.40;99.90;;;;;;5075693;28;20283;-80
2022/03/21 03:28:45;;;;;;;0.80;0.80;;;-4.30;99.90;;;;;;5075856;28;20229;-79
2022/03/21 03:31:13;;;;;;;0.80;0.80;;;-4.20;99.90;;;;;;5075320;28;20221;-80
2022/03/21 03:33:40;;;;;;;0.90;0.90;;;-4.20;99.90;;;;;;5075653;28;20287;-81
2022/03/21 03:36:07;;;;;;;0.70;0.70;;;-4.20;99.90;;;;;;5093763;28;20207;-81
2022/03/21 03:38:33;;;;;;;0.80;0.80;;;-4.20;99.90;;;;;;5075542;28;20650;-81
2022/03/21 03:40:58;;;;;;;0.90;0.90;;;-4.30;99.90;;;;;;5075648;28;20200;-81
2022/03/21 03:43:24;;;;;;;0.90;0.90;;;-4.30;99.90;;;;;;5075793;28;20208;-81
2022/03/21 03:45:52;;;;;;;0.90;0.90;;;-4.20;99.90;;;;;;5075754;28;20229;-80
2022/03/21 03:48:20;;;;;;;0.80;0.80;;;-4.20;99.90;;;;;;5075549;28;20199;-81
2022/03/21 03:50:46;;;;;;;0.90;0.90;;;-4.30;99.90;;;;;;5093663;28;20199;-81
2022/03/21 03:53:11;;;;;;;0.80;0.80;;;-4.30;99.90;;;;;;5075363;28;20248;-81
2022/03/21 03:55:37;;;;;;;0.77;0.77;;;-4.30;99.90;;;;;;5075792;28;20202;-80
2022/03/21 03:58:03;;;;;;;0.80;0.80;;;-4.40;99.90;;;;;;5075102;28;20203;-81
2022/03/21 04:00:29;;;;;;;0.80;0.80;;;-4.50;99.90;;;;;;5075460;28;20226;-81
2022/03/21 04:05:39;;;;;;;0.80;0.80;;;-4.50;99.90;;;;;;5093300;28;20326;-81
2022/03/21 04:08:05;;;;;;;0.98;0.98;;;-4.60;99.90;;;;;;5074813;28;20223;-81
2022/03/21 04:10:31;;;;;;;2.33;1.17;;;-4.70;99.90;;;;;;5074668;28;20199;-80
2022/03/21 04:12:57;;;;;;;0.90;0.90;;;-4.70;99.90;;;;;;5075236;28;20274;-80
2022/03/21 04:15:23;;;;;;;0.90;0.90;;;-4.70;99.90;;;;;;5093202;28;20604;-80
2022/03/21 04:17:50;;;;;;;0.80;0.80;;;-4.70;99.90;;;;;;5093434;28;20720;-80
2022/03/21 04:20:16;;;;;;;0.80;0.80;;;-4.70;99.90;;;;;;5075127;28;20203;-80
2022/03/21 04:22:42;;;;;;;0.90;0.90;;;-4.80;99.90;;;;;;5074908;28;20212;-80
2022/03/21 04:25:11;;;;;;;0.90;0.90;;;-4.80;99.90;;;;;;5074957;28;20598;-80
2022/03/21 04:27:37;;;;;;;0.80;0.80;;;-4.80;99.90;;;;;;5074746;28;20227;-80
2022/03/21 04:30:06;;;;;;;2.03;1.05;;;-4.80;99.90;;;;;;5093140;28;20657;-80
2022/03/21 04:32:32;;;;;;;0.80;0.80;;;-4.80;99.90;;;;;;5074941;28;20200;-80
2022/03/21 04:34:58;;;;;;;0.80;0.80;;;-4.90;99.90;;;;;;5075153;28;20201;-80
2022/03/21 04:37:24;;;;;;;0.80;0.80;;;-4.90;99.90;;;;;;5092978;28;20192;-80
2022/03/21 04:39:49;;;;;;;0.95;0.95;;;-4.90;99.90;;;;;;5075059;28;20208;-80
2022/03/21 04:42:16;;;;;;;0.90;0.90;;;-5.00;99.90;;;;;;5075538;28;20207;-79
2022/03/21 04:44:44;;;;;;;8.18;2.17;;;-4.90;99.90;;;;;;5078044;28;20584;-80
2022/03/21 04:47:10;;;;;;;0.80;0.80;;;-4.90;99.90;;;;;;5096952;28;20189;-79
2022/03/21 04:49:36;;;;;;;0.88;0.88;;;-4.90;99.90;;;;;;5096423;28;20685;-80
2022/03/21 04:52:02;;;;;;;0.88;0.88;;;-4.90;99.90;;;;;;5078817;28;20192;-80
2022/03/21 04:54:28;;;;;;;0.90;0.90;;;-4.80;99.90;;;;;;5078522;28;20203;-80
2022/03/21 04:56:54;;;;;;;0.80;0.80;;;-4.80;99.90;;;;;;5078813;28;20598;-80
2022/03/21 04:59:20;;;;;;;0.80;0.80;;;-4.90;99.90;;;;;;5096660;28;20606;-80
2022/03/21 05:01:47;;;;;;;2.67;1.85;;;-4.90;99.90;;;;;;5078118;28;20227;-79
2022/03/21 05:04:13;;;;;;;0.80;0.80;;;-4.80;99.90;;;;;;5074903;28;20205;-80
2022/03/21 05:06:39;;;;;;;0.88;0.88;;;-4.60;99.90;;;;;;5058276;28;20948;-79
2022/03/21 05:09:06;;;;;;;0.73;0.73;;;-4.60;99.90;;;;;;5088349;28;20224;-81
2022/03/21 05:11:31;;;;;;;1.92;1.83;;;-4.60;99.90;;;;;;5078050;28;20246;-80
2022/03/21 05:13:57;;;;;;;0.80;0.80;;;-4.60;99.90;;;;;;5078348;28;20220;-80
2022/03/21 05:16:23;;;;;;;0.80;0.80;;;-4.50;99.90;;;;;;5094903;28;20196;-80
2022/03/21 05:18:50;;;;;;;0.75;0.75;;;-4.50;99.90;;;;;;5078150;28;20207;-79
2022/03/21 05:21:17;;;;;;;0.80;0.80;;;-4.40;99.90;;;;;;5078157;28;20689;-79
2022/03/21 05:31:56;;;;;;;2.95;1.70;;;-4.30;99.90;;;;;;5075704;28;20568;-79
2022/03/21 05:37:06;;;;;;;0.80;0.80;;;-4.30;99.90;;;;;;5076018;28;20207;-78
2022/03/21 05:39:31;;;;;;;0.82;0.82;;;-4.20;99.90;;;;;;5057778;28;20735;-80
2022/03/21 05:41:57;;;;;;;0.80;0.80;;;-4.20;99.90;;;;;;5057970;28;20201;-80
2022/03/21 05:44:26;;;;;;;0.90;0.90;;;-4.10;99.90;;;;;;5075582;28;20208;-80
2022/03/21 05:46:52;;;;;;;0.90;0.90;;;-4.00;99.90;;;;;;5088305;28;20278;-80
2022/03/21 05:49:17;;;;;;;0.90;0.90;;;-3.90;99.90;;;;;;5077504;28;20249;-80
2022/03/21 05:51:43;;;;;;;0.80;0.80;;;-3.80;99.90;;;;;;5078020;28;20199;-80
2022/03/21 05:54:11;;;;;;;0.80;0.80;;;-3.70;99.90;;;;;;5094623;28;20654;-80
2022/03/21 05:56:39;;;;;;;0.80;0.80;;;-3.70;99.90;;;;;;5077272;28;20196;-80
2022/03/21 06:01:50;;;;;;;0.90;0.90;;;-3.60;99.90;;;;;;5096111;28;20203;-80
2022/03/21 06:04:17;;;;;;;0.80;0.80;;;-3.60;99.90;;;;;;5094141;28;20234;-80
2022/03/21 06:06:44;;;;;;;0.80;0.80;;;-3.60;99.90;;;;;;5076754;28;20224;-80
2022/03/21 06:09:09;;;;;;;0.80;0.80;;;-3.60;99.90;;;;;;5095329;28;20231;-80
2022/03/21 06:11:36;;;;;;;1.05;1.00;;;-3.50;99.90;;;;;;5076732;28;20677;-79
2022/03/21 06:14:04;;;;;;;1.42;1.33;;;-3.40;99.90;;;;;;5076371;28;20301;-80
2022/03/21 06:16:33;;;;;;;1.10;1.10;;;-3.40;99.90;;;;;;5076592;28;20204;-80
2022/03/21 06:19:02;;;;;;;0.80;0.80;;;-3.30;99.90;;;;;;5077207;28;20196;-80
2022/03/21 06:21:29;;;;;;;0.70;0.70;;;-3.20;99.90;;;;;;5076771;28;20599;-80
2022/03/21 06:23:55;;;;;;;1.50;1.40;;;-3.10;99.90;;;;;;5076645;28;20739;-80
2022/03/21 06:26:20;;;;;;;0.80;0.80;;;-3.00;99.90;;;;;;5076913;28;20551;-80
2022/03/21 06:28:47;;;;;;;0.90;0.90;;;-2.90;99.90;;;;;;5076800;28;20188;-80
2022/03/21 06:31:13;;;;;;;0.77;0.77;;;-2.80;99.90;;;;;;5076759;28;20196;-81
2022/03/21 06:33:39;;;;;;;0.80;0.80;;;-2.70;99.90;;;;;;5076522;28;20196;-81
2022/03/21 06:36:04;;;;;;;0.80;0.80;;;-2.70;99.90;;;;;;5076442;28;20291;-81
2022/03/21 06:38:30;;;;;;;0.70;0.70;;;-2.60;99.90;;;;;;5094638;28;20196;-80
2022/03/21 06:40:57;;;;;;;0.70;0.70;;;-2.40;99.90;;;;;;5094587;28;20206;-80
2022/03/21 06:43:24;;;;;;;0.95;0.95;;;-2.30;99.90;;;;;;5094329;28;20219;-81
2022/03/21 06:45:54;;;;;;;0.70;0.70;;;-2.10;99.90;;;;;;5076307;28;20195;-81
2022/03/21 06:48:21;;;;;;;0.70;0.70;;;-2.00;99.90;;;;;;5076118;28;20215;-81
2022/03/21 06:50:48;;;;;;;0.70;0.70;;;-1.80;99.90;;;;;;5093773;28;20198;-81
2022/03/21 06:53:14;;;;;;;0.88;0.88;;;-1.70;99.90;;;;;;5094814;28;20192;-81
2022/03/21 06:55:41;;;;;;;0.90;0.90;;;-1.50;99.90;;;;;;5075655;28;20574;-81
2022/03/21 06:58:11;;;;;;;0.90;0.90;;;-1.40;99.90;;;;;;5085006;28;20209;-81
2022/03/21 07:00:39;;;;;;;0.90;0.90;;;-1.30;99.90;;;;;;5073611;28;20213;-81
2022/03/21 07:03:05;;;;;;;0.68;0.68;;;-1.10;99.90;;;;;;5055936;28;20220;-81
2022/03/21 07:05:30;;;;;;;0.73;0.73;;;-1.00;99.90;;;;;;5066128;28;20248;-81
2022/03/21 07:07:56;;;;;;;1.23;1.13;;;-0.80;99.90;;;;;;5069393;28;20206;-81
2022/03/21 07:10:22;;;;;;;8.13;1.13;;;-0.70;99.90;;;;;;5069026;28;20671;-77
2022/03/21 07:12:48;;;;;;;1.10;1.00;;;-0.50;99.90;;;;;;5069291;28;20572;-77
2022/03/21 07:15:15;;;;;;;0.70;0.70;;;-0.40;99.90;;;;;;5069002;28;20202;-77
2022/03/21 07:17:42;;;;;;;0.80;0.80;;;-0.20;99.90;;;;;;5052326;28;20205;-77
2022/03/21 07:20:12;;;;;;;0.80;0.80;;;-0.10;99.90;;;;;;5062154;28;20218;-77
2022/03/21 07:22:38;;;;;;;1.40;1.30;;;0.10;99.90;;;;;;5073739;28;21287;-77
2022/03/21 07:25:06;;;;;;;0.77;0.77;;;0.20;99.90;;;;;;5088849;28;20315;-77
2022/03/21 07:27:32;;;;;;;1.00;0.90;;;0.40;99.90;;;;;;5088522;28;20192;-77
2022/03/21 07:29:58;;;;;;;0.70;0.70;;;0.60;99.90;;;;;;5089215;28;20667;-77
2022/03/21 07:32:26;;;;;;;0.70;0.70;;;0.80;99.90;;;;;;5073526;28;20201;-77
2022/03/21 07:34:52;;;;;;;1.10;1.10;;;0.90;99.90;;;;;;5089126;28;20199;-77
2022/03/21 07:37:17;;;;;;;0.60;0.60;;;1.10;99.90;;;;;;5072245;28;20598;-76
2022/03/21 07:39:46;;;;;;;0.60;0.60;;;1.30;99.90;;;;;;5088825;28;20732;-77
2022/03/21 07:42:16;;;;;;;0.70;0.70;;;1.40;99.90;;;;;;5089212;28;20197;-77
2022/03/21 07:47:29;;;;;;;0.70;0.70;;;1.60;99.90;;;;;;5073469;28;20212;-77
2022/03/21 07:49:55;;;;;;;0.80;0.80;;;1.80;99.90;;;;;;5089149;28;20196;-77
2022/03/21 07:52:22;;;;;;;0.85;0.85;;;2.00;99.90;;;;;;5071951;28;20204;-77
2022/03/21 07:54:53;;;;;;;0.77;0.77;;;2.10;99.90;;;;;;5089240;28;20196;-77
2022/03/21 07:57:24;;;;;;;0.65;0.65;;;2.30;99.90;;;;;;5088707;28;20227;-78
2022/03/21 07:59:51;;;;;;;1.45;1.35;;;2.50;99.90;;;;;;5071978;28;20193;-77
2022/03/21 08:02:21;;;;;;;0.80;0.80;;;2.70;99.90;;;;;;5072055;28;20199;-77
2022/03/21 08:04:48;;;;;;;0.70;0.70;;;2.90;99.90;;;;;;5068834;28;20206;-77
2022/03/21 08:07:17;;;;;;;0.70;0.70;;;3.10;99.90;;;;;;5055479;28;20652;-77
2022/03/21 08:09:43;;;;;;;1.25;0.75;;;3.30;99.90;;;;;;5058285;28;20294;-77
2022/03/21 08:12:09;;;;;;;1.08;0.98;;;3.50;99.90;;;;;;5074734;28;20667;-77
2022/03/21 08:14:36;;;;;;;0.70;0.70;;;3.60;99.90;;;;;;5075396;28;20244;-78
2022/03/21 08:17:05;;;;;;;0.80;0.80;;;3.70;99.90;;;;;;5075624;28;20219;-77
2022/03/21 08:19:31;;;;;;;0.75;0.75;;;3.90;99.90;;;;;;5097354;28;20599;-77
2022/03/21 08:21:57;;;;;;;0.60;0.60;;;3.90;99.90;;;;;;5079124;28;20229;-77
2022/03/21 08:24:23;;;;;;;1.08;1.08;;;4.00;99.90;;;;;;5078884;28;20211;-78
2022/03/21 08:26:49;;;;;;;1.10;1.10;;;4.30;99.90;;;;;;5078993;28;20200;-78
2022/03/21 08:29:15;;;;;;;1.38;1.23;;;4.50;99.90;;;;;;5079178;28;20294;-77
2022/03/21 08:31:42;;;;;;;0.55;0.55;;;4.80;99.90;;;;;;5078719;28;20227;-77
2022/03/21 08:34:08;;;;;;;0.60;0.60;;;4.90;99.90;;;;;;5097139;28;20283;-77
2022/03/21 08:36:35;;;;;;;1.30;1.27;;;5.20;99.90;;;;;;5078281;28;20282;-77
2022/03/21 08:39:01;;;;;;;4.00;1.85;;;5.20;99.90;;;;;;5079039;28;20196;-77
2022/03/21 08:41:27;;;;;;;0.98;0.98;;;5.30;99.90;;;;;;5078850;28;20192;-77
2022/03/21 08:43:53;;;;;;;0.70;0.70;;;5.60;99.90;;;;;;5095298;28;20685;-77
2022/03/21 08:46:19;;;;;;;0.80;0.77;;;5.70;99.90;;;;;;5078139;28;20193;-77
2022/03/21 08:51:29;;;;;;;0.75;0.75;;;5.90;99.90;;;;;;5096929;28;20241;-77
2022/03/21 08:53:56;;;;;;;1.08;1.00;;;6.00;99.90;;;;;;5078599;28;20204;-77
2022/03/21 08:56:25;;;;;;;1.98;1.88;;;6.10;99.90;;;;;;5078397;28;20200;-77
2022/03/21 08:58:51;;;;;;;0.98;0.98;;;6.40;99.90;;;;;;5078422;28;20222;-77
2022/03/21 09:01:17;;;;;;;1.35;1.27;;;6.50;99.90;;;;;;5078520;28;20654;-77
2022/03/21 09:03:43;;;;;;;1.25;1.17;;;6.60;99.90;;;;;;5078259;28;20578;-77
2022/03/21 09:06:08;;;;;;;1.13;1.10;;;6.60;99.90;;;;;;5074855;28;20307;-77
2022/03/21 09:08:35;;;;;;;0.80;0.80;;;6.80;99.90;;;;;;5074728;28;20288;-77
2022/03/21 09:11:03;;;;;;;1.15;0.88;;;7.00;99.90;;;;;;5076442;28;20242;-77
2022/03/21 09:13:29;;;;;;;0.90;0.90;;;7.10;99.90;;;;;;5074526;28;20219;-77
2022/03/21 09:15:55;;;;;;;2.60;2.15;;;7.20;99.90;;;;;;5076260;28;20271;-77
2022/03/21 09:18:20;;;;;;;2.00;1.60;;;7.50;99.90;;;;;;5075863;28;20189;-79
2022/03/21 09:20:46;;;;;;;1.00;1.00;;;7.50;99.90;;;;;;5074715;28;20193;-77
2022/03/21 09:23:11;;;;;;;3.70;1.23;;;7.70;99.90;;;;;;5075290;28;20224;-77
2022/03/21 09:25:40;;;;;;;0.80;0.80;;;8.00;99.90;;;;;;5074678;28;20557;-77
2022/03/21 09:28:06;;;;;;;6.25;1.45;;;8.30;99.90;;;;;;5074377;28;20192;-77
2022/03/21 09:30:33;;;;;;;0.73;0.73;;;8.20;99.90;;;;;;5075566;28;20670;-77
2022/03/21 09:32:59;;;;;;;1.50;1.23;;;8.20;99.90;;;;;;5074401;28;20197;-77
2022/03/21 09:35:25;;;;;;;1.35;1.25;;;8.20;99.90;;;;;;5074498;28;20197;-78
2022/03/21 09:37:50;;;;;;;1.10;1.10;;;8.50;99.90;;;;;;5075976;28;20232;-77
2022/03/21 09:40:19;;;;;;;2.00;1.35;;;8.60;99.90;;;;;;5074554;28;20196;-79
2022/03/21 09:42:45;;;;;;;1.35;1.25;;;9.00;99.90;;;;;;5075755;28;20189;-78
2022/03/21 09:45:12;;;;;;;1.85;1.75;;;9.20;99.90;;;;;;5074188;28;20250;-78
2022/03/21 09:50:35;;;;;;;1.42;1.33;;;9.20;99.90;;;;;;5060914;28;20231;-78
2022/03/21 09:53:02;;;;;;;2.42;1.70;;;9.30;99.90;;;;;;5055609;28;20193;-78
2022/03/21 09:55:39;;;;;;;1.50;1.20;;;9.40;99.90;;;;;;5055266;28;20243;-78
2022/03/21 09:58:07;;;;;;;5.72;2.00;;;9.50;99.90;;;;;;5054375;28;20201;-79
2022/03/21 10:00:33;;;;;;;1.63;1.52;;;9.40;99.90;;;;;;5053670;28;20194;-79
2022/03/21 10:02:59;;;;;;;2.95;2.03;;;9.80;99.90;;;;;;5053558;28;20212;-78
2022/03/21 10:05:40;;;;;;;3.38;2.13;;;10.00;99.90;;;;;;5066873;28;20677;-78
2022/03/21 10:08:23;;;;;;;2.13;1.98;;;10.00;99.90;;;;;;5057290;28;20197;-78
2022/03/21 10:10:54;;;;;;;2.17;1.85;;;10.00;99.90;;;;;;5075000;28;20647;-79
2022/03/21 10:13:22;;;;;;;3.60;1.88;;;10.10;99.90;;;;;;5073525;28;20220;-79
2022/03/21 10:15:48;;;;;;;2.13;1.35;;;10.30;99.90;;;;;;5074892;28;20571;-79
2022/03/21 10:18:15;;;;;;;2.92;2.05;;;10.60;99.90;;;;;;5073447;28;20569;-78
2022/03/21 10:20:41;;;;;;;3.00;1.98;;;10.90;99.90;;;;;;5073545;28;20207;-79
2022/03/21 10:23:17;;;;;;;2.83;1.73;;;10.90;99.90;;;;;;5073713;28;20687;-76
2022/03/21 10:25:44;;;;;;;2.33;1.25;;;10.70;99.90;;;;;;5074526;28;20560;-78
2022/03/21 10:28:17;;;;;;;2.03;1.55;;;10.90;99.90;;;;;;5073556;28;20197;-78
2022/03/21 10:30:45;;;;;;;1.40;1.25;;;10.80;99.70;;;;;;5073646;28;20193;-78
2022/03/21 10:33:11;;;;;;;5.80;2.50;;;10.80;94.40;;;;;;5073550;28;20607;-78
2022/03/21 10:35:46;;;;;;;1.70;1.27;;;10.70;95.90;;;;;;5074725;28;20193;-78
2022/03/21 10:38:12;;;;;;;1.85;1.42;;;10.70;95.70;;;;;;5073506;28;20283;-79
2022/03/21 10:40:41;;;;;;;1.48;1.23;;;10.80;95.00;;;;;;5072886;28;20193;-80
2022/03/21 10:43:09;;;;;;;1.50;1.38;;;11.40;93.90;;;;;;5073395;28;20247;-79
2022/03/21 10:45:35;;;;;;;1.40;1.30;;;11.60;94.20;;;;;;5072923;28;20204;-79
2022/03/21 10:48:04;;;;;;;2.67;1.92;;;11.40;90.80;;;;;;5073193;28;20189;-79
2022/03/21 10:50:41;;;;;;;1.45;1.00;;;11.50;92.30;;;;;;5072952;28;20189;-79
2022/03/21 10:53:16;;;;;;;3.95;2.15;;;11.40;93.80;;;;;;5074271;28;20193;-78
2022/03/21 10:55:47;;;;;;;2.42;1.33;;;11.40;92.20;;;;;;5072638;28;20283;-79
2022/03/21 10:58:15;;;;;;;8.18;2.22;;;11.50;89.20;;;;;;5072794;28;20201;-78
2022/03/21 11:00:41;;;;;;;2.08;1.92;;;11.30;90.00;;;;;;5072595;28;20204;-78
2022/03/21 11:03:14;;;;;;;1.75;1.42;;;11.70;90.60;;;;;;5055790;28;20216;-78
2022/03/21 11:05:46;;;;;;;2.22;1.73;;;11.90;88.60;;;;;;5063852;28;20247;-78
2022/03/21 11:08:16;;;;;;;1.60;0.90;;;11.90;90.00;;;;;;5072154;28;20652;-78
2022/03/21 11:10:43;;;;;;;5.38;1.85;;;12.00;89.00;;;;;;5072375;28;20189;-78
2022/03/21 11:13:10;;;;;;;6.97;1.63;;;12.20;87.30;;;;;;5072432;28;20204;-78
2022/03/21 11:15:38;;;;;;;2.10;1.90;;;12.10;89.10;;;;;;5072420;28;20208;-78
2022/03/21 11:18:05;;;;;;;1.17;1.05;;;12.10;90.30;;;;;;5072295;28;20201;-78
2022/03/21 11:20:31;;;;;;;2.33;1.80;;;12.50;85.30;;;;;;5072367;28;20196;-79
2022/03/21 11:22:58;;;;;;;1.20;1.10;;;12.60;83.90;;;;;;5072473;28;20205;-79
2022/03/21 11:25:27;;;;;;;2.40;1.27;;;12.60;83.30;;;;;;5052273;28;20271;-79
2022/03/21 11:28:31;;;;;;;2.00;1.42;;;12.70;79.60;;;;;;5052575;28;20217;-79
2022/03/21 11:31:02;;;;;;;1.02;0.95;;;12.70;82.40;;;;;;5052673;28;20198;-78
2022/03/21 11:33:35;;;;;;;1.23;1.15;;;12.80;81.90;;;;;;5053346;28;20506;-79
2022/03/21 11:36:19;;;;;;;1.30;1.15;;;13.00;80.30;;;;;;5056941;28;20243;-78
2022/03/21 11:38:47;;;;;;;1.73;1.10;;;13.00;80.20;;;;;;5072243;28;20204;-79
2022/03/21 11:41:23;;;;;;;3.60;2.15;;;13.00;81.70;;;;;;5072179;28;20216;-79
2022/03/21 11:44:04;;;;;;;1.80;1.13;;;12.70;77.80;;;;;;5052327;28;20216;-79
2022/03/21 11:46:35;;;;;;;3.17;2.58;;;12.40;79.60;;;;;;5051945;28;20562;-78
2022/03/21 11:49:19;;;;;;;3.10;1.95;;;12.40;76.10;;;;;;5053345;28;20669;-79
2022/03/21 11:51:59;;;;;;;7.13;2.28;;;12.60;76.30;;;;;;5052296;28;20189;-79
2022/03/21 11:54:34;;;;;;;2.28;1.88;;;13.00;77.70;;;;;;5051908;28;20197;-79
2022/03/21 11:57:07;;;;;;;1.02;1.02;;;13.10;76.50;;;;;;5053135;28;20250;-78
2022/03/21 11:59:32;;;;;;;1.33;1.23;;;13.30;74.90;;;;;;5051753;28;20280;-80
2022/03/21 12:02:10;;;;;;;1.02;1.00;;;13.50;78.00;;;;;;5066250;28;20201;-78
2022/03/21 12:04:37;;;;;;;7.07;2.38;;;13.20;74.20;;;;;;5067976;28;20205;-78
2022/03/21 12:07:12;;;;;;;1.80;1.42;;;13.30;78.10;;;;;;5068653;28;20225;-78
2022/03/21 12:09:46;;;;;;;5.65;2.28;;;13.10;72.10;;;;;;5051844;28;20204;-78
2022/03/21 12:12:13;;;;;;;2.63;1.20;;;13.10;73.60;;;;;;5068537;28;20204;-78
2022/03/21 12:14:46;;;;;;;5.85;2.08;;;13.10;75.00;;;;;;5068542;28;20203;-78
2022/03/21 12:17:11;;;;;;;1.58;1.38;;;13.00;77.80;;;;;;5068562;28;20193;-79
2022/03/21 12:19:54;;;;;;;3.72;2.03;;;13.00;73.20;;;;;;5051581;28;20201;-79
2022/03/21 12:22:29;;;;;;;1.25;1.05;;;12.90;74.20;;;;;;5061187;28;20668;-80
2022/03/21 12:24:59;;;;;;;3.15;2.40;;;12.90;73.80;;;;;;5053171;28;20702;-79
2022/03/21 12:27:52;;;;;;;2.28;2.03;;;12.40;73.30;;;;;;5068232;28;20281;-79
2022/03/21 12:30:21;;;;;;;1.02;1.02;;;12.50;77.60;;;;;;5052919;28;20216;-80
2022/03/21 12:33:01;;;;;;;4.22;2.05;;;12.80;76.80;;;;;;5077460;28;20201;-80
2022/03/21 12:35:44;;;;;;;1.70;1.50;;;13.00;74.00;;;;;;5071402;28;20220;-79
2022/03/21 12:38:23;;;;;;;2.22;1.85;;;13.10;70.50;;;;;;5071541;28;20284;-79
2022/03/21 12:40:53;;;;;;;3.45;1.60;;;13.20;70.20;;;;;;5071620;28;20220;-80
2022/03/21 12:43:41;;;;;;;0.75;0.75;;;12.90;73.00;;;;;;5072027;28;20208;-80
2022/03/21 12:46:09;;;;;;;1.33;1.23;;;13.10;71.20;;;;;;5072144;28;20553;-79
2022/03/21 12:48:38;;;;;;;3.40;1.30;;;13.00;70.00;;;;;;5066032;28;20625;-80
2022/03/21 12:51:05;;;;;;;0.93;0.90;;;13.30;69.60;;;;;;5072990;28;20185;-79
2022/03/21 12:53:39;;;;;;;1.70;1.40;;;13.30;66.10;;;;;;5054713;28;20203;-80
2022/03/21 12:56:08;;;;;;;3.38;1.33;;;13.20;67.30;;;;;;5054809;28;20211;-78
2022/03/21 12:58:41;;;;;;;1.27;1.17;;;13.00;66.80;;;;;;5064004;28;20199;-79
2022/03/21 13:01:07;;;;;;;2.30;2.00;;;13.00;72.80;;;;;;5087739;28;20667;-80
2022/03/21 13:03:35;;;;;;;1.33;1.20;;;12.90;68.10;;;;;;5073596;28;20196;-80
2022/03/21 13:11:46;;;;;;;1.20;0.90;;;12.70;63.00;;;;;;5076084;28;20189;-81
2022/03/21 13:14:14;;;;;;;2.80;1.27;;;12.40;65.70;;;;;;5074723;28;20736;-81
2022/03/21 13:16:50;;;;;;;3.47;2.05;;;12.50;68.30;;;;;;5074872;28;20227;-81
2022/03/21 13:19:27;;;;;;;2.88;2.53;;;12.60;65.20;;;;;;5074671;28;20284;-82
2022/03/21 13:22:05;;;;;;;5.47;1.92;;;12.50;67.00;;;;;;5074970;28;20564;-82
2022/03/21 13:24:38;;;;;;;1.05;1.05;;;12.70;67.60;;;;;;5074676;28;20687;-82
2022/03/21 13:27:05;;;;;;;1.60;1.48;;;13.10;68.00;;;;;;5074807;28;20680;-82